Aérodrome :
LOGIN :

S'inscrire | Disclaimer

   EN    FR    IT 

 










Légende :    VFR   VFR Marginal   IFR   IFR Intensif   IFR Très Intensif
Visi : 
Plafond : 
>= 8 km
>= 3000ft
5 à 8 km
1000 à 3000 ft
1500m à 5 km
500 à 1000 ft
800 à 1500m
200 à 500 ft
< 800m
< 200 ft
Symboles :   Orages  Brouillard  Fortes neiges  Fortes précipitations  Vent > 20 kt
SIGMETs :   Divers  Orages  Givrage  Turbulence  Onde Orograph.  Cendres Volcan.







- Altitude de l'aérodrome : 489 ft
- Code IATA : GDN


EPGD - Gdansk

DERNIER METAR :
  • 201930Z 28004KT 9000 FEW032 BKN037 M01/M02 Q1018 R11/550195

METARs EXPIRÉS :
  • 201900Z 27005KT 9999 BKN031 M01/M02 Q1017 R11/550195
  • 201830Z 27003KT 240V300 9999 BKN031 M01/M02 Q1017 R11/550195
  • 201800Z 27005KT 240V300 8000 -SHSN FEW007 FEW010CB BKN033 M01/M02 Q1017 R11/550195
  • 201730Z 28005KT 6000 -SHSN FEW003 SCT010CB BKN025 M01/M02 Q1017 R11/550195
  • 201700Z 33005KT 2600 -SHSN SCT003 BKN010CB M01/M01 Q1017 RESHSN
  • 201630Z 29008KT 1300 R29/1900N SHSN SCT002 BKN010CB M01/M02 Q1017

TAF TAF EPGD
Valide du 20 à 18h jusqu'au 21 à 18h UTC


201730Z 2018/2118 27010KT 6000 OVC015
TEMPO 2018/2109 2500 SHSN BKN005 BKN010CB
PROB40
TEMPO 2018/2107 1000 SHSN BKN002 OVC008CB
BECMG 2115/2117 20008KT
Pas de NOTAMs connus pour ce terrain.



MET'MAP, la Météo Aéronautique d'un coup d'oeil ! - Copyright ORBIFLY Décembre 2007 - Disclaimer

ORBIFLY MET'MAP TEAM :

Programmation & Développement : Alexandra Zaïnal
Conception & Développement : Baudouin d'Aumeries
Co-Programmation & Développement : Marc-Olivier Méhu
Soutien technique & logistique : Manuel Goepfert

Contact : metmap@orbifly.com




SOURCES & CREDITS :

   NOAA